createdAt,value
2022-11-05T00:00:34.959Z,11.70
2022-11-05T00:03:20.473Z,17.55
2022-11-05T00:06:09.836Z,14.38
2022-11-05T00:08:54.937Z,18.10
2022-11-05T00:11:44.507Z,14.50
2022-11-05T00:14:30.419Z,16.80
2022-11-05T00:16:58.523Z,13.57
2022-11-05T00:19:26.799Z,13.48
2022-11-05T00:22:18.286Z,16.25
2022-11-05T00:25:03.729Z,16.17
2022-11-05T00:27:35.655Z,13.68
2022-11-05T00:30:04.025Z,15.70
2022-11-05T00:32:32.826Z,13.93
2022-11-05T00:35:01.062Z,13.85
2022-11-05T00:37:29.418Z,16.52
2022-11-05T00:39:57.615Z,16.17
2022-11-05T00:42:42.990Z,13.45
2022-11-05T00:45:12.837Z,16.83
2022-11-05T00:47:59.170Z,15.05
2022-11-05T00:50:27.531Z,16.60
2022-11-05T00:52:57.950Z,16.52
2022-11-05T00:55:29.068Z,17.80
2022-11-05T00:57:57.721Z,15.48
2022-11-05T01:00:29.347Z,17.67
2022-11-05T01:02:59.821Z,18.55
2022-11-05T01:05:28.839Z,17.85
2022-11-05T01:07:57.269Z,17.30
2022-11-05T01:10:26.036Z,17.38
2022-11-05T01:12:54.793Z,17.20
2022-11-05T01:15:23.367Z,19.52
2022-11-05T01:17:53.510Z,15.77
2022-11-05T01:20:21.643Z,16.98
2022-11-05T01:22:49.786Z,15.98
2022-11-05T01:25:18.132Z,19.25
2022-11-05T01:27:46.709Z,16.80
2022-11-05T01:30:15.274Z,17.27
2022-11-05T01:32:43.916Z,16.17
2022-11-05T01:35:16.863Z,16.40
2022-11-05T01:37:45.723Z,11.98
2022-11-05T01:40:15.803Z,16.92
2022-11-05T01:42:44.328Z,16.63
2022-11-05T01:45:16.441Z,17.05
2022-11-05T01:47:57.936Z,17.17
2022-11-05T01:50:35.635Z,14.57
2022-11-05T01:53:10.591Z,19.40
2022-11-05T01:55:43.281Z,15.95
2022-11-05T01:58:15.014Z,14.48
2022-11-05T02:00:44.804Z,18.17
2022-11-05T02:03:16.189Z,18.52
2022-11-05T02:05:47.272Z,17.27
2022-11-05T02:08:21.666Z,16.70
2022-11-05T02:10:50.531Z,17.65
2022-11-05T02:13:18.690Z,17.60
2022-11-05T02:15:56.213Z,17.92
2022-11-05T02:18:37.653Z,16.58
2022-11-05T02:21:23.106Z,17.75
2022-11-05T02:24:18.807Z,16.75
2022-11-05T02:27:19.995Z,16.98
2022-11-05T02:30:06.799Z,15.55
2022-11-05T02:32:49.706Z,14.02
2022-11-05T02:35:29.250Z,17.80
2022-11-05T02:38:07.747Z,17.25
2022-11-05T02:40:46.600Z,15.93
2022-11-05T02:43:25.838Z,18.90
2022-11-05T02:46:09.473Z,14.48
2022-11-05T02:48:47.095Z,18.42
2022-11-05T02:51:23.464Z,18.13
2022-11-05T02:53:57.847Z,14.18
2022-11-05T02:56:29.746Z,15.95
2022-11-05T02:58:57.846Z,16.08
2022-11-05T03:01:26.063Z,13.38
2022-11-05T03:04:00.614Z,14.27
2022-11-05T03:06:57.363Z,14.73
2022-11-05T03:09:57.235Z,14.27
2022-11-05T03:12:44.275Z,13.15
2022-11-05T03:15:25.383Z,13.98
2022-11-05T03:18:03.131Z,10.90
2022-11-05T03:20:38.400Z,14.57
2022-11-05T03:23:13.640Z,13.45
2022-11-05T03:25:47.352Z,12.35
2022-11-05T03:28:18.000Z,14.10
2022-11-05T03:30:46.980Z,13.55
2022-11-05T03:33:20.336Z,11.07
2022-11-05T03:35:54.536Z,15.30
2022-11-05T03:38:27.043Z,13.77
2022-11-05T03:40:58.725Z,12.63
2022-11-05T03:43:31.360Z,14.00
2022-11-05T03:46:03.300Z,11.70
2022-11-05T03:48:32.654Z,13.68
2022-11-05T03:51:08.036Z,12.45
2022-11-05T03:53:43.197Z,13.05
2022-11-05T03:56:15.921Z,12.20
2022-11-05T03:58:45.263Z,15.02
2022-11-05T04:01:13.825Z,18.15
2022-11-05T04:03:42.053Z,14.20
2022-11-05T04:06:29.076Z,12.60
2022-11-05T04:09:14.613Z,15.32
2022-11-05T04:12:00.229Z,14.00
2022-11-05T04:14:28.606Z,13.23
2022-11-05T04:17:09.423Z,13.27
2022-11-05T04:19:57.036Z,13.57
2022-11-05T04:22:45.224Z,14.73
2022-11-05T04:25:14.042Z,12.75
2022-11-05T04:27:42.375Z,13.77
2022-11-05T04:30:19.468Z,13.95
2022-11-05T04:33:03.604Z,12.93
2022-11-05T04:35:33.402Z,14.30
2022-11-05T04:38:03.142Z,14.48
2022-11-05T04:40:31.628Z,13.50
2022-11-05T04:43:00.137Z,12.50
2022-11-05T04:45:30.441Z,13.50
2022-11-05T04:47:58.542Z,14.07
2022-11-05T04:50:26.648Z,16.65
2022-11-05T04:52:54.983Z,17.20
2022-11-05T04:55:24.690Z,18.77
2022-11-05T04:57:54.131Z,12.85
2022-11-05T05:00:23.850Z,16.02
2022-11-05T05:02:52.044Z,17.40
2022-11-05T05:05:21.313Z,16.75
2022-11-05T05:07:49.599Z,15.25
2022-11-05T05:10:17.847Z,17.85
2022-11-05T05:12:48.467Z,12.43
2022-11-05T05:15:17.108Z,16.45
2022-11-05T05:17:45.217Z,16.35
2022-11-05T05:20:31.233Z,18.30
2022-11-05T05:22:59.594Z,14.05
2022-11-05T05:25:27.696Z,13.23
2022-11-05T05:27:59.824Z,18.00
2022-11-05T05:30:28.032Z,17.00
2022-11-05T05:32:56.126Z,17.52
2022-11-05T05:35:24.386Z,17.92
2022-11-05T05:37:56.681Z,15.32
2022-11-05T05:40:25.139Z,19.77
2022-11-05T05:42:55.350Z,17.88
2022-11-05T05:45:25.083Z,18.77
2022-11-05T05:47:55.643Z,17.80
2022-11-05T05:50:23.797Z,18.15
2022-11-05T05:52:52.159Z,19.05
2022-11-05T05:55:20.256Z,20.25
2022-11-05T05:57:48.348Z,18.75
2022-11-05T06:00:17.065Z,18.33
2022-11-05T06:02:46.644Z,21.92
2022-11-05T06:05:14.986Z,19.65
2022-11-05T06:07:43.259Z,25.38
2022-11-05T06:10:11.649Z,19.90
2022-11-05T06:12:39.904Z,22.85
2022-11-05T06:15:09.055Z,24.17
2022-11-05T06:17:37.227Z,24.15
2022-11-05T06:20:09.791Z,26.70
2022-11-05T06:22:38.320Z,27.08
2022-11-05T06:25:07.573Z,26.88
2022-11-05T06:27:36.807Z,28.27
2022-11-05T06:30:05.994Z,27.48
2022-11-05T06:32:34.079Z,23.95
2022-11-05T06:35:02.289Z,25.30
2022-11-05T06:37:33.526Z,26.60
2022-11-05T06:40:02.611Z,26.02
2022-11-05T06:42:30.995Z,27.58
2022-11-05T06:44:59.168Z,28.60
2022-11-05T06:47:27.331Z,28.60
2022-11-05T06:49:57.356Z,24.35
2022-11-05T06:52:27.258Z,28.35
2022-11-05T06:54:56.797Z,24.42
2022-11-05T06:57:25.002Z,24.40
2022-11-05T06:59:58.738Z,30.33
2022-11-05T07:02:29.041Z,20.45
2022-11-05T07:04:57.177Z,22.98
2022-11-05T07:07:25.308Z,22.02
2022-11-05T07:09:53.662Z,22.15
2022-11-05T07:12:23.369Z,26.35
2022-11-05T07:14:51.551Z,21.42
2022-11-05T07:17:20.017Z,19.50
2022-11-05T07:19:48.174Z,20.38
2022-11-05T07:22:16.415Z,22.30
2022-11-05T07:24:47.216Z,20.92
2022-11-05T07:27:15.362Z,15.65
2022-11-05T07:29:45.101Z,12.60
2022-11-05T07:32:13.262Z,18.23
2022-11-05T07:34:41.551Z,15.40
2022-11-05T07:37:10.158Z,10.65
2022-11-05T07:39:38.271Z,13.77
2022-11-05T07:42:06.600Z,13.80
2022-11-05T07:44:35.011Z,12.73
2022-11-05T07:47:04.604Z,12.85
2022-11-05T07:49:32.676Z,13.27
2022-11-05T07:52:01.021Z,12.18
2022-11-05T07:54:29.203Z,10.07
2022-11-05T07:56:57.322Z,12.90
2022-11-05T07:59:25.490Z,10.05
2022-11-05T08:01:53.614Z,9.20
2022-11-05T08:04:23.372Z,10.18
2022-11-05T08:06:51.656Z,13.32
2022-11-05T08:09:19.794Z,14.02
2022-11-05T08:11:47.925Z,13.65
2022-11-05T08:14:16.374Z,15.40
2022-11-05T08:16:44.447Z,15.38
2022-11-05T08:19:12.715Z,12.02
2022-11-05T08:21:42.573Z,12.63
2022-11-05T08:24:11.150Z,14.00
2022-11-05T08:26:39.289Z,15.52
2022-11-05T08:29:09.410Z,17.73
2022-11-05T08:31:38.159Z,20.60
2022-11-05T08:34:06.299Z,19.25
2022-11-05T08:36:36.082Z,13.50
2022-11-05T08:39:05.668Z,18.40
2022-11-05T08:41:33.723Z,21.38
2022-11-05T08:44:02.031Z,20.50
2022-11-05T08:46:30.120Z,23.00
2022-11-05T08:48:58.640Z,16.63
2022-11-05T08:51:26.815Z,15.57
2022-11-05T08:53:54.946Z,16.92
2022-11-05T08:56:24.650Z,15.75
2022-11-05T08:58:52.980Z,17.65
2022-11-05T09:01:21.192Z,15.73
2022-11-05T09:03:52.471Z,16.30
2022-11-05T09:06:21.045Z,13.70
2022-11-05T09:08:49.200Z,14.32
2022-11-05T09:11:18.191Z,14.23
2022-11-05T09:13:48.025Z,14.13
2022-11-05T09:16:20.732Z,15.02
2022-11-05T09:18:50.192Z,15.77
2022-11-05T09:21:18.549Z,16.48
2022-11-05T09:23:47.529Z,13.98
2022-11-05T09:26:15.934Z,17.70
2022-11-05T09:28:44.449Z,15.70
2022-11-05T09:31:14.889Z,15.02
2022-11-05T09:33:43.333Z,15.50
2022-11-05T09:36:11.772Z,15.57
2022-11-05T09:38:39.918Z,16.92
2022-11-05T09:41:13.980Z,18.55
2022-11-05T09:43:45.624Z,17.30
2022-11-05T09:46:19.952Z,17.23
2022-11-05T09:48:50.924Z,14.90
2022-11-05T09:51:23.856Z,11.15
2022-11-05T09:53:53.726Z,13.30
2022-11-05T09:56:25.165Z,16.48
2022-11-05T09:58:58.575Z,15.10
2022-11-05T10:01:31.947Z,15.25
2022-11-05T10:04:03.876Z,16.13
2022-11-05T10:06:32.158Z,14.20
2022-11-05T10:09:06.564Z,16.08
2022-11-05T10:11:40.857Z,14.63
2022-11-05T10:14:16.068Z,14.93
2022-11-05T10:16:50.046Z,14.38
2022-11-05T10:19:24.332Z,20.10
2022-11-05T10:22:10.965Z,17.75
2022-11-05T10:24:42.164Z,16.13
2022-11-05T10:27:17.626Z,15.52
2022-11-05T10:29:46.635Z,13.07
2022-11-05T10:32:22.880Z,14.27
2022-11-05T10:34:52.565Z,15.63
2022-11-05T10:37:22.712Z,16.63
2022-11-05T10:39:51.048Z,14.80
2022-11-05T10:42:44.087Z,16.45
2022-11-05T10:45:22.340Z,15.93
2022-11-05T10:48:06.298Z,17.83
2022-11-05T10:53:08.320Z,15.35
2022-11-05T10:55:38.597Z,16.98
2022-11-05T10:58:12.140Z,18.73
2022-11-05T11:00:40.960Z,13.70
2022-11-05T11:03:36.320Z,14.15
2022-11-05T11:06:07.829Z,15.52
2022-11-05T11:08:37.816Z,15.25
2022-11-05T11:11:08.955Z,16.83
2022-11-05T11:13:52.713Z,12.13
2022-11-05T11:16:23.182Z,13.40
2022-11-05T11:18:57.183Z,14.02
2022-11-05T11:21:26.356Z,13.10
2022-11-05T11:23:58.809Z,12.82
2022-11-05T11:26:30.012Z,13.32
2022-11-05T11:29:00.954Z,14.80
2022-11-05T11:31:31.246Z,12.88
2022-11-05T11:34:04.312Z,14.63
2022-11-05T11:36:39.572Z,12.50
2022-11-05T11:39:13.355Z,12.93
2022-11-05T11:41:43.976Z,14.82
2022-11-05T11:44:17.349Z,12.50
2022-11-05T11:46:49.540Z,12.50
2022-11-05T11:49:34.476Z,13.85
2022-11-05T11:52:06.063Z,13.27
2022-11-05T11:54:35.451Z,13.65
2022-11-05T11:57:04.136Z,13.20
2022-11-05T12:00:06.585Z,12.43
2022-11-05T12:02:48.299Z,17.05
2022-11-05T12:05:31.652Z,14.68
2022-11-05T12:08:07.835Z,14.65
2022-11-05T12:10:45.631Z,12.25
2022-11-05T12:13:45.871Z,15.55
2022-11-05T12:16:22.604Z,15.23
2022-11-05T12:18:59.062Z,14.30
2022-11-05T12:21:52.120Z,13.27
2022-11-05T12:24:38.343Z,13.88
2022-11-05T12:27:19.804Z,12.38
2022-11-05T12:29:59.154Z,14.68
2022-11-05T12:32:45.277Z,11.40
2022-11-05T12:35:30.875Z,10.93
2022-11-05T12:38:12.458Z,14.23
2022-11-05T12:40:52.544Z,12.15
2022-11-05T12:43:31.296Z,11.52
2022-11-05T12:46:07.667Z,12.77
2022-11-05T12:48:55.778Z,16.33
2022-11-05T12:51:39.239Z,13.27
2022-11-05T12:54:17.572Z,19.33
2022-11-05T12:56:49.459Z,12.82
2022-11-05T12:59:24.156Z,13.50
2022-11-05T13:01:58.886Z,16.70
2022-11-05T13:04:35.458Z,14.35
2022-11-05T13:07:07.817Z,17.05
2022-11-05T13:09:42.637Z,15.75
2022-11-05T13:12:15.753Z,14.63
2022-11-05T13:14:48.083Z,13.85
2022-11-05T13:17:19.587Z,16.52
2022-11-05T13:19:52.031Z,15.90
2022-11-05T13:22:34.358Z,17.58
2022-11-05T13:25:11.643Z,17.23
2022-11-05T13:27:52.158Z,17.33
2022-11-05T13:30:23.330Z,13.88
2022-11-05T13:32:57.699Z,15.35
2022-11-05T13:35:31.054Z,12.65
2022-11-05T13:38:23.239Z,16.92
2022-11-05T13:41:20.264Z,15.18
2022-11-05T13:44:15.116Z,14.73
2022-11-05T13:47:06.438Z,18.73
2022-11-05T13:50:04.109Z,16.35
2022-11-05T13:52:56.001Z,12.32
2022-11-05T13:55:56.504Z,16.88
2022-11-05T13:58:56.151Z,15.45
2022-11-05T14:01:43.488Z,16.95
2022-11-05T14:04:32.412Z,19.10
2022-11-05T14:07:08.806Z,15.20
2022-11-05T14:09:39.085Z,19.10
2022-11-05T14:12:17.542Z,18.95
2022-11-05T14:14:58.412Z,12.93
2022-11-05T14:17:31.946Z,16.17
2022-11-05T14:20:41.750Z,14.65
2022-11-05T14:23:38.424Z,15.05
2022-11-05T14:26:25.553Z,13.95
2022-11-05T14:29:29.226Z,13.73
2022-11-05T14:32:09.564Z,13.27
2022-11-05T14:34:47.368Z,13.43
2022-11-05T14:37:41.424Z,15.75
2022-11-05T14:40:30.284Z,14.98
2022-11-05T14:43:01.557Z,13.50
2022-11-05T14:45:32.309Z,10.30
2022-11-05T14:48:04.046Z,16.42
2022-11-05T14:50:37.020Z,12.43
2022-11-05T14:53:26.392Z,13.80
2022-11-05T14:56:02.140Z,13.88
2022-11-05T14:58:36.630Z,14.57
2022-11-05T15:01:07.071Z,12.95
2022-11-05T15:04:01.935Z,13.32
2022-11-05T15:06:33.137Z,15.45
2022-11-05T15:09:29.201Z,13.18
2022-11-05T15:12:14.841Z,15.95
2022-11-05T15:14:54.218Z,13.98
2022-11-05T15:17:29.706Z,15.52
2022-11-05T15:20:09.097Z,10.32
2022-11-05T15:22:41.577Z,10.50
2022-11-05T15:25:18.721Z,11.82
2022-11-05T15:27:59.164Z,11.23
2022-11-05T15:30:27.873Z,16.23
2022-11-05T15:32:56.090Z,13.50
2022-11-05T15:35:28.790Z,13.40
2022-11-05T15:38:02.026Z,13.80
2022-11-05T15:40:32.761Z,13.10
2022-11-05T15:43:11.457Z,11.68
2022-11-05T15:45:40.284Z,13.63
2022-11-05T15:48:15.826Z,17.33
2022-11-05T15:50:45.701Z,16.70
2022-11-05T15:56:13.904Z,15.90
2022-11-05T15:58:48.262Z,15.77
2022-11-05T16:01:28.027Z,14.32
2022-11-05T16:03:57.971Z,16.27
2022-11-05T16:06:31.179Z,15.27
2022-11-05T16:08:59.447Z,19.02
2022-11-05T16:11:28.360Z,15.20
2022-11-05T16:14:15.060Z,16.15
2022-11-05T16:16:44.161Z,16.73
2022-11-05T16:19:40.545Z,15.88
2022-11-05T16:22:10.590Z,15.65
2022-11-05T16:24:39.162Z,11.95
2022-11-05T16:27:07.593Z,12.80
2022-11-05T16:29:38.020Z,14.75
2022-11-05T16:32:08.261Z,14.70
2022-11-05T16:34:40.682Z,16.70
2022-11-05T16:37:14.646Z,15.93
2022-11-05T16:39:43.057Z,14.02
2022-11-05T16:42:37.924Z,13.15
2022-11-05T16:45:07.087Z,15.95
2022-11-05T16:47:35.266Z,12.80
2022-11-05T16:50:03.694Z,16.75
2022-11-05T16:52:33.147Z,16.55
2022-11-05T16:55:01.222Z,10.65
2022-11-05T16:57:31.314Z,12.13
2022-11-05T17:00:01.501Z,14.23
2022-11-05T17:02:29.917Z,11.45
2022-11-05T17:04:58.199Z,16.73
2022-11-05T17:07:26.586Z,17.60
2022-11-05T17:09:56.343Z,13.05
2022-11-05T17:12:24.487Z,16.02
2022-11-05T17:14:52.900Z,14.07
2022-11-05T17:17:21.052Z,15.35
2022-11-05T17:19:49.301Z,13.80
2022-11-05T17:22:17.648Z,13.10
2022-11-05T17:24:45.980Z,15.60
2022-11-05T17:27:15.861Z,12.00
2022-11-05T17:29:44.201Z,15.25
2022-11-05T17:32:13.170Z,13.48
2022-11-05T17:34:41.441Z,10.85
2022-11-05T17:37:09.811Z,14.02
2022-11-05T17:39:38.085Z,15.25
2022-11-05T17:42:06.251Z,11.55
2022-11-05T17:44:36.021Z,12.95
2022-11-05T17:47:04.144Z,11.60
2022-11-05T17:49:32.410Z,13.25
2022-11-05T17:52:00.800Z,13.75
2022-11-05T17:54:29.249Z,15.82
2022-11-05T17:56:57.509Z,15.60
2022-11-05T17:59:25.691Z,12.25
2022-11-05T18:01:55.221Z,13.43
2022-11-05T18:04:23.478Z,13.98
2022-11-05T18:06:51.629Z,12.00
2022-11-05T18:09:19.794Z,16.50
2022-11-05T18:11:47.968Z,12.77
2022-11-05T18:14:21.314Z,13.07
2022-11-05T18:16:52.384Z,9.55
2022-11-05T18:19:22.036Z,12.38
2022-11-05T18:21:50.138Z,12.80
2022-11-05T18:24:18.351Z,10.63
2022-11-05T18:26:46.471Z,12.02
2022-11-05T18:29:14.793Z,13.48
2022-11-05T18:31:43.097Z,14.23
2022-11-05T18:34:11.539Z,15.40
2022-11-05T18:36:41.358Z,11.98
2022-11-05T18:39:09.769Z,10.05
2022-11-05T18:41:37.903Z,11.45
2022-11-05T18:44:06.692Z,11.00
2022-11-05T18:46:57.229Z,11.93
2022-11-05T18:49:24.775Z,13.00
2022-11-05T18:51:54.783Z,10.73
2022-11-05T18:54:23.112Z,15.77
2022-11-05T18:56:51.319Z,10.57
2022-11-05T18:59:36.730Z,12.48
2022-11-05T19:02:06.969Z,12.90
2022-11-05T19:04:36.743Z,11.55
2022-11-05T19:07:07.053Z,11.88
2022-11-05T19:09:36.053Z,11.02
2022-11-05T19:12:05.150Z,12.40
2022-11-05T19:14:33.366Z,14.25
2022-11-05T19:17:02.565Z,11.13
2022-11-05T19:19:31.172Z,13.38
2022-11-05T19:21:59.385Z,13.73
2022-11-05T19:24:29.123Z,11.98
2022-11-05T19:26:57.578Z,12.98
2022-11-05T19:29:25.852Z,12.23
2022-11-05T19:31:54.029Z,14.18
2022-11-05T19:34:22.303Z,13.10
2022-11-05T19:36:50.448Z,15.25
2022-11-05T19:39:18.628Z,15.57
2022-11-05T19:41:50.148Z,14.95
2022-11-05T19:44:18.439Z,15.93
2022-11-05T19:46:47.032Z,13.68
2022-11-05T19:49:15.276Z,12.27
2022-11-05T19:51:43.812Z,14.85
2022-11-05T19:54:12.127Z,15.80
2022-11-05T19:56:40.274Z,16.02
2022-11-05T19:59:09.889Z,12.70
2022-11-05T20:01:38.518Z,15.25
2022-11-05T20:04:06.954Z,13.52
2022-11-05T20:06:38.657Z,12.95
2022-11-05T20:09:21.578Z,15.48
2022-11-05T20:11:50.140Z,14.20
2022-11-05T20:14:19.770Z,16.40
2022-11-05T20:16:48.361Z,12.50
2022-11-05T20:19:18.643Z,15.55
2022-11-05T20:21:47.363Z,17.98
2022-11-05T20:24:23.343Z,13.68
2022-11-05T20:26:53.439Z,19.55
2022-11-05T20:29:23.432Z,17.33
2022-11-05T20:31:52.018Z,14.32
2022-11-05T20:34:20.485Z,14.93
2022-11-05T20:36:48.565Z,17.65
2022-11-05T20:39:16.967Z,18.30
2022-11-05T20:41:45.416Z,16.70
2022-11-05T20:44:13.576Z,16.80
2022-11-05T20:46:43.159Z,16.50
2022-11-05T20:49:11.371Z,19.25
2022-11-05T20:51:39.543Z,15.05
2022-11-05T20:54:07.913Z,14.85
2022-11-05T20:56:36.387Z,12.35
2022-11-05T20:59:05.814Z,14.80
2022-11-05T21:01:35.477Z,19.70
2022-11-05T21:04:05.637Z,18.65
2022-11-05T21:06:34.929Z,14.68
2022-11-05T21:09:04.132Z,16.83
2022-11-05T21:11:56.355Z,14.18
2022-11-05T21:14:24.666Z,13.00
2022-11-05T21:16:53.184Z,16.35
2022-11-05T21:19:24.029Z,14.13
2022-11-05T21:21:52.185Z,16.70
2022-11-05T21:24:20.323Z,14.65
2022-11-05T21:26:49.988Z,16.73
2022-11-05T21:29:19.222Z,13.43
2022-11-05T21:31:47.646Z,13.98
2022-11-05T21:34:17.053Z,14.75
2022-11-05T21:36:47.128Z,11.73
2022-11-05T21:39:15.472Z,15.25
2022-11-05T21:41:43.721Z,14.45
2022-11-05T21:44:11.925Z,18.80
2022-11-05T21:46:40.048Z,15.10
2022-11-05T21:49:09.530Z,13.98
2022-11-05T21:51:55.141Z,17.60
2022-11-05T21:54:42.361Z,16.33
2022-11-05T21:57:33.006Z,15.15
2022-11-05T22:00:02.067Z,17.13
2022-11-05T22:02:30.795Z,13.05
2022-11-05T22:05:00.125Z,16.10
2022-11-05T22:07:30.775Z,11.80
2022-11-05T22:10:00.858Z,14.10
2022-11-05T22:12:29.645Z,10.80
2022-11-05T22:14:57.891Z,13.55
2022-11-05T22:17:26.646Z,12.60
2022-11-05T22:19:56.265Z,9.93
2022-11-05T22:22:24.370Z,11.55
2022-11-05T22:24:52.476Z,12.75
2022-11-05T22:27:22.786Z,9.63
2022-11-05T22:29:51.337Z,13.52
2022-11-05T22:32:19.910Z,11.98
2022-11-05T22:34:49.601Z,16.80
2022-11-05T22:37:17.753Z,12.65
2022-11-05T22:39:45.930Z,13.35
2022-11-05T22:42:14.309Z,16.20
2022-11-05T22:44:44.029Z,10.07
2022-11-05T22:47:14.053Z,12.88
2022-11-05T22:49:42.569Z,11.02
2022-11-05T22:52:10.783Z,14.18
2022-11-05T22:54:39.596Z,10.43
2022-11-05T22:57:08.627Z,10.00
2022-11-05T22:59:36.881Z,10.20
2022-11-05T23:02:09.807Z,11.60
2022-11-05T23:04:39.128Z,10.25
2022-11-05T23:07:27.708Z,12.48
2022-11-05T23:10:14.196Z,16.15
2022-11-05T23:12:44.558Z,17.35
2022-11-05T23:15:34.490Z,12.43
2022-11-05T23:18:21.372Z,11.25
2022-11-05T23:21:07.352Z,13.48
2022-11-05T23:23:53.440Z,10.13
2022-11-05T23:26:39.033Z,13.82
2022-11-05T23:29:07.175Z,13.40
2022-11-05T23:31:52.662Z,11.25
2022-11-05T23:34:22.539Z,12.05
2022-11-05T23:37:07.905Z,14.05
2022-11-05T23:39:42.213Z,11.82
2022-11-05T23:42:28.793Z,12.50
2022-11-05T23:45:15.020Z,12.85
2022-11-05T23:48:01.258Z,12.73
2022-11-05T23:50:35.669Z,12.95
2022-11-05T23:53:08.236Z,16.48
2022-11-05T23:55:36.867Z,12.07
2022-11-05T23:58:05.015Z,13.18
